Time;durP1;ratioP1;P1;durP2;ratioP2;P2;SDS_P1;SDS_P2;PMS_P1;PMS_P2;Temp;Humidity;BMP_temperature;BMP_pressure;BME280_temperature;BME280_humidity;BME280_pressure;Samples;Min_cycle;Max_cycle;Signal;HPM_P1;HPM_P2
2022/10/14 16:28:26;;;;;;;11.25;5.15;;;;;;;;;;4912302;29;20056;-65
2022/10/14 16:30:54;;;;;;;15.45;5.22;;;;;;;;;;4902727;29;20139;-66
2022/10/14 16:33:21;;;;;;;12.63;5.18;;;;;;;;;;4898542;29;20088;-66
2022/10/14 16:35:50;;;;;;;10.77;4.85;;;;;;;;;;4907525;29;20494;-66
2022/10/14 16:38:17;;;;;;;10.82;5.20;;;;;;;;;;4900734;29;20044;-66
2022/10/14 16:40:45;;;;;;;14.23;8.50;;;;;;;;;;4901881;29;20044;-66
2022/10/14 16:43:12;;;;;;;19.67;10.85;;;;;;;;;;4900750;29;20043;-66
2022/10/14 16:45:40;;;;;;;11.20;6.57;;;;;;;;;;4916282;29;20052;-66
2022/10/14 16:48:08;;;;;;;10.77;5.50;;;;;;;;;;4916594;29;20565;-67
2022/10/14 16:50:35;;;;;;;11.48;4.95;;;;;;;;;;4916009;29;20047;-66
2022/10/14 16:55:49;;;;;;;8.35;4.90;;;;;;;;;;4916560;29;20046;-66
2022/10/14 16:58:17;;;;;;;11.10;5.38;;;;;;;;;;4917522;29;20438;-65
2022/10/14 17:00:44;;;;;;;12.95;5.25;;;;;;;;;;4916805;29;20051;-66
2022/10/14 17:03:13;;;;;;;12.27;5.28;;;;;;;;;;4917252;29;20395;-66
2022/10/14 17:05:43;;;;;;;9.70;5.40;;;;;;;;;;4916500;29;20040;-67
2022/10/14 17:08:13;;;;;;;9.05;4.82;;;;;;;;;;4917170;29;20036;-72
2022/10/14 17:10:41;;;;;;;13.18;5.43;;;;;;;;;;4917034;29;20060;-70
2022/10/14 17:13:09;;;;;;;9.45;4.90;;;;;;;;;;4914655;29;20054;-68
2022/10/14 17:15:37;;;;;;;10.02;5.13;;;;;;;;;;4916385;29;20040;-68
2022/10/14 17:18:05;;;;;;;8.80;5.22;;;;;;;;;;4900416;29;20040;-68
2022/10/14 17:20:38;;;;;;;9.10;5.28;;;;;;;;;;4916905;29;20462;-68
2022/10/14 17:23:06;;;;;;;7.85;5.18;;;;;;;;;;4916798;29;20074;-68
2022/10/14 17:25:38;;;;;;;11.23;6.00;;;;;;;;;;4916168;29;20059;-68
2022/10/14 17:28:06;;;;;;;10.93;5.07;;;;;;;;;;4916625;29;20080;-70
2022/10/14 17:30:33;;;;;;;10.05;5.53;;;;;;;;;;4915549;29;20040;-67
2022/10/14 17:33:01;;;;;;;11.25;5.25;;;;;;;;;;4916622;29;20040;-68
2022/10/14 17:35:28;;;;;;;9.13;5.30;;;;;;;;;;4916476;29;20044;-66
2022/10/14 17:37:56;;;;;;;9.90;5.15;;;;;;;;;;4916495;29;20161;-67
2022/10/14 17:40:25;;;;;;;11.90;5.07;;;;;;;;;;4915471;29;20055;-67
2022/10/14 17:42:53;;;;;;;10.23;4.95;;;;;;;;;;4916230;29;20056;-65
2022/10/14 17:45:21;;;;;;;7.45;5.13;;;;;;;;;;4916100;29;20045;-67
2022/10/14 17:47:48;;;;;;;10.55;5.22;;;;;;;;;;4916258;29;20055;-67
2022/10/14 17:50:17;;;;;;;9.07;5.10;;;;;;;;;;4915669;29;20387;-67
2022/10/14 17:52:45;;;;;;;9.27;5.53;;;;;;;;;;4916256;29;20059;-67
2022/10/14 17:55:12;;;;;;;8.90;5.15;;;;;;;;;;4916511;29;20039;-66
2022/10/14 17:57:40;;;;;;;7.65;4.90;;;;;;;;;;4916157;29;20054;-66
2022/10/14 18:00:08;;;;;;;12.57;4.72;;;;;;;;;;4916401;29;20078;-67
2022/10/14 18:02:38;;;;;;;10.02;5.00;;;;;;;;;;4916297;29;20052;-66
2022/10/14 18:05:06;;;;;;;9.23;5.07;;;;;;;;;;4916289;29;20087;-67
2022/10/14 18:07:36;;;;;;;10.23;5.78;;;;;;;;;;4914909;29;20040;-68
2022/10/14 18:10:04;;;;;;;9.48;4.88;;;;;;;;;;4915014;29;20127;-68
2022/10/14 18:12:32;;;;;;;12.32;6.05;;;;;;;;;;4915206;29;20068;-68
2022/10/14 18:15:00;;;;;;;7.82;5.25;;;;;;;;;;4916326;29;20063;-66
2022/10/14 18:17:32;;;;;;;10.05;6.07;;;;;;;;;;4914945;29;20465;-66
2022/10/14 18:20:04;;;;;;;7.75;5.15;;;;;;;;;;4915886;29;20040;-67
2022/10/14 18:22:32;;;;;;;13.32;4.85;;;;;;;;;;4915874;29;20044;-65
2022/10/14 18:24:59;;;;;;;9.95;5.38;;;;;;;;;;4915201;29;20452;-65
2022/10/14 18:27:27;;;;;;;12.85;5.68;;;;;;;;;;4914620;29;20058;-65
2022/10/14 18:29:54;;;;;;;13.52;5.72;;;;;;;;;;4915687;29;20489;-66
2022/10/14 18:32:22;;;;;;;11.82;5.28;;;;;;;;;;4915676;29;20048;-67
2022/10/14 18:34:50;;;;;;;9.65;5.32;;;;;;;;;;4914762;29;20077;-67
2022/10/14 18:37:17;;;;;;;10.00;5.32;;;;;;;;;;4903375;29;20076;-66
2022/10/14 18:39:45;;;;;;;11.82;5.55;;;;;;;;;;4910160;29;20045;-68
2022/10/14 18:42:12;;;;;;;12.20;5.65;;;;;;;;;;4915898;29;20398;-68
2022/10/14 18:44:46;;;;;;;8.45;5.43;;;;;;;;;;4915090;29;20075;-67
2022/10/14 18:47:13;;;;;;;11.65;5.78;;;;;;;;;;4915378;29;20111;-68
2022/10/14 18:49:41;;;;;;;7.72;5.05;;;;;;;;;;4915383;29;20059;-67
2022/10/14 18:52:08;;;;;;;13.35;5.85;;;;;;;;;;4915992;29;20056;-67
2022/10/14 18:54:36;;;;;;;10.95;6.00;;;;;;;;;;4914574;29;20402;-67
2022/10/14 18:57:03;;;;;;;13.63;6.28;;;;;;;;;;4918113;29;20052;-68
2022/10/14 18:59:31;;;;;;;9.68;5.50;;;;;;;;;;4918485;29;20040;-68
2022/10/14 19:01:59;;;;;;;13.05;5.57;;;;;;;;;;4919536;29;20048;-68
2022/10/14 19:04:27;;;;;;;9.98;5.68;;;;;;;;;;4919316;29;20044;-68
2022/10/14 19:06:55;;;;;;;10.43;6.22;;;;;;;;;;4918245;29;20048;-67
2022/10/14 19:09:28;;;;;;;8.55;5.30;;;;;;;;;;4918130;29;20096;-68
2022/10/14 19:11:57;;;;;;;11.27;6.32;;;;;;;;;;4919643;29;20052;-68
2022/10/14 19:14:27;;;;;;;12.13;5.90;;;;;;;;;;4918382;29;20048;-68
2022/10/14 19:16:55;;;;;;;10.48;5.43;;;;;;;;;;4917994;29;20100;-68
2022/10/14 19:19:22;;;;;;;14.27;6.10;;;;;;;;;;4919248;29;20063;-67
2022/10/14 19:21:53;;;;;;;11.63;6.10;;;;;;;;;;4919156;29;20048;-67
2022/10/14 19:24:21;;;;;;;13.85;7.88;;;;;;;;;;4919658;29;20048;-67
2022/10/14 19:26:48;;;;;;;16.55;8.35;;;;;;;;;;4919212;29;20052;-69
2022/10/14 19:29:17;;;;;;;15.30;6.35;;;;;;;;;;4919019;29;20048;-68
2022/10/14 19:31:44;;;;;;;11.27;6.75;;;;;;;;;;4919210;29;20115;-67
2022/10/14 19:34:13;;;;;;;12.75;6.90;;;;;;;;;;4918956;29;20502;-69
2022/10/14 19:36:41;;;;;;;10.63;6.38;;;;;;;;;;4920733;29;20116;-67
2022/10/14 19:39:10;;;;;;;8.35;5.38;;;;;;;;;;4918192;29;20067;-69
2022/10/14 19:41:41;;;;;;;9.93;5.10;;;;;;;;;;4917142;29;20052;-68
2022/10/14 19:44:11;;;;;;;9.20;5.53;;;;;;;;;;4918868;29;20087;-68
2022/10/14 19:46:40;;;;;;;8.77;4.85;;;;;;;;;;4919216;29;20067;-68
2022/10/14 19:49:10;;;;;;;8.43;5.00;;;;;;;;;;4948598;29;20055;-67
2022/10/14 19:51:38;;;;;;;8.23;4.80;;;;;;;;;;4919119;29;20036;-68
2022/10/14 19:54:06;;;;;;;8.82;4.88;;;;;;;;;;4918888;29;20048;-67
2022/10/14 19:56:33;;;;;;;10.50;5.05;;;;;;;;;;4918758;29;20044;-67
2022/10/14 19:59:01;;;;;;;9.35;4.88;;;;;;;;;;4917650;29;20051;-67
2022/10/14 20:01:29;;;;;;;6.93;4.72;;;;;;;;;;4918838;29;20443;-68
2022/10/14 20:03:59;;;;;;;9.82;4.70;;;;;;;;;;4918750;29;20490;-67
2022/10/14 20:06:28;;;;;;;10.15;4.68;;;;;;;;;;4918776;29;20099;-67
2022/10/14 20:08:55;;;;;;;10.05;4.90;;;;;;;;;;4917781;29;20494;-68
2022/10/14 20:11:23;;;;;;;14.18;4.70;;;;;;;;;;4917425;29;20044;-68
2022/10/14 20:13:51;;;;;;;10.23;4.43;;;;;;;;;;4901847;29;20056;-67
2022/10/14 20:16:19;;;;;;;9.45;4.75;;;;;;;;;;4918476;29;20048;-67
2022/10/14 20:18:46;;;;;;;9.55;4.00;;;;;;;;;;4917401;29;20056;-67
2022/10/14 20:21:14;;;;;;;6.70;3.80;;;;;;;;;;4917024;29;20076;-68
2022/10/14 20:23:42;;;;;;;7.43;3.92;;;;;;;;;;4918672;29;20048;-68
2022/10/14 20:26:14;;;;;;;10.15;4.30;;;;;;;;;;4917121;29;20111;-67
2022/10/14 20:28:42;;;;;;;12.15;4.45;;;;;;;;;;4918395;29;20059;-67
2022/10/14 20:31:11;;;;;;;8.38;3.83;;;;;;;;;;4916940;29;20044;-68
2022/10/14 20:33:39;;;;;;;8.35;4.07;;;;;;;;;;4917279;29;20048;-68
2022/10/14 20:36:09;;;;;;;6.72;3.60;;;;;;;;;;4917931;29;20506;-67
2022/10/14 20:38:37;;;;;;;7.55;4.47;;;;;;;;;;4918045;29;20040;-67
2022/10/14 20:41:08;;;;;;;12.10;4.10;;;;;;;;;;4918404;29;20048;-66
2022/10/14 20:43:35;;;;;;;9.95;3.65;;;;;;;;;;4918026;29;20036;-67
2022/10/14 20:46:03;;;;;;;10.38;3.60;;;;;;;;;;4918158;29;20086;-69
2022/10/14 20:48:30;;;;;;;7.57;3.40;;;;;;;;;;4916757;29;20044;-68
2022/10/14 20:50:58;;;;;;;6.00;3.40;;;;;;;;;;4917883;29;20521;-67
2022/10/14 20:53:27;;;;;;;5.18;3.08;;;;;;;;;;4917043;29;20104;-68
2022/10/14 20:56:00;;;;;;;5.90;3.15;;;;;;;;;;4916723;29;20103;-67
2022/10/14 20:58:27;;;;;;;5.80;3.40;;;;;;;;;;4918023;29;20138;-68
2022/10/14 21:01:03;;;;;;;6.53;3.42;;;;;;;;;;4917689;29;20044;-67
2022/10/14 21:03:31;;;;;;;8.90;3.35;;;;;;;;;;4916685;29;20059;-67
2022/10/14 21:06:04;;;;;;;7.03;3.33;;;;;;;;;;4917776;29;20052;-68
2022/10/14 21:08:32;;;;;;;5.75;3.33;;;;;;;;;;4917692;29;20046;-68
2022/10/14 21:11:04;;;;;;;6.30;3.33;;;;;;;;;;4917570;29;20068;-68
2022/10/14 21:13:35;;;;;;;9.10;3.50;;;;;;;;;;4917472;29;20036;-68
2022/10/14 21:16:12;;;;;;;8.88;3.40;;;;;;;;;;4917330;29;20044;-67
2022/10/14 21:18:39;;;;;;;10.02;3.20;;;;;;;;;;4917239;29;20448;-67
2022/10/14 21:21:07;;;;;;;6.35;3.17;;;;;;;;;;4917213;29;20044;-68
2022/10/14 21:23:39;;;;;;;6.35;3.45;;;;;;;;;;4917478;29;20062;-68
2022/10/14 21:26:06;;;;;;;6.07;3.60;;;;;;;;;;4916355;29;20100;-68
2022/10/14 21:28:34;;;;;;;9.77;3.63;;;;;;;;;;4917338;29;20044;-68
2022/10/14 21:31:08;;;;;;;6.20;3.15;;;;;;;;;;4917244;29;20040;-68
2022/10/14 21:33:36;;;;;;;9.45;4.20;;;;;;;;;;4915850;29;20044;-68
2022/10/14 21:36:08;;;;;;;7.90;3.65;;;;;;;;;;4917184;29;20056;-68
2022/10/14 21:38:36;;;;;;;5.90;3.33;;;;;;;;;;4916976;29;20123;-68
2022/10/14 21:41:04;;;;;;;10.45;3.58;;;;;;;;;;4916849;29;20044;-66
2022/10/14 21:43:32;;;;;;;8.63;3.60;;;;;;;;;;4916952;29;20044;-67
2022/10/14 21:46:04;;;;;;;7.82;3.25;;;;;;;;;;4917113;29;20052;-67
2022/10/14 21:48:31;;;;;;;10.25;3.30;;;;;;;;;;4916829;29;20044;-68
2022/10/14 21:51:06;;;;;;;7.90;3.38;;;;;;;;;;4917124;29;20431;-68
2022/10/14 21:53:34;;;;;;;8.82;3.70;;;;;;;;;;4916843;29;20490;-67
2022/10/14 21:56:02;;;;;;;5.10;3.00;;;;;;;;;;4917213;29;20091;-67
2022/10/14 21:58:29;;;;;;;9.23;3.45;;;;;;;;;;4916727;29;20705;-66
2022/10/14 22:01:00;;;;;;;6.03;3.10;;;;;;;;;;4916839;29;20040;-68
2022/10/14 22:03:28;;;;;;;5.38;2.95;;;;;;;;;;4917087;29;20375;-67
2022/10/14 22:06:03;;;;;;;5.80;3.05;;;;;;;;;;4916674;29;20044;-68
2022/10/14 22:08:33;;;;;;;9.00;3.35;;;;;;;;;;4916766;29;20044;-67
2022/10/14 22:11:01;;;;;;;8.55;3.30;;;;;;;;;;4916560;29;20494;-68
2022/10/14 22:13:29;;;;;;;7.80;3.17;;;;;;;;;;4916729;29;20057;-67
2022/10/14 22:15:56;;;;;;;6.65;2.60;;;;;;;;;;4916649;29;20130;-67
2022/10/14 22:18:24;;;;;;;5.88;2.92;;;;;;;;;;4916459;29;20048;-67
2022/10/14 22:20:59;;;;;;;7.55;3.10;;;;;;;;;;4916575;29;20044;-68
2022/10/14 22:23:26;;;;;;;5.88;3.05;;;;;;;;;;4916570;29;20048;-67
2022/10/14 22:25:54;;;;;;;6.68;2.50;;;;;;;;;;4916484;29;20048;-67
2022/10/14 22:28:21;;;;;;;7.68;2.92;;;;;;;;;;4916641;29;20434;-67
2022/10/14 22:30:49;;;;;;;7.13;2.60;;;;;;;;;;4915902;29;20491;-68
2022/10/14 22:33:16;;;;;;;10.57;2.70;;;;;;;;;;4916185;29;20166;-68
2022/10/14 22:35:44;;;;;;;4.57;2.60;;;;;;;;;;4916338;29;20051;-67
2022/10/14 22:38:11;;;;;;;7.25;3.10;;;;;;;;;;4916241;29;20411;-68
2022/10/14 22:40:38;;;;;;;6.13;3.00;;;;;;;;;;4916319;29;20514;-68
2022/10/14 22:43:06;;;;;;;6.78;2.83;;;;;;;;;;4916656;29;20048;-68
2022/10/14 22:45:33;;;;;;;5.00;2.80;;;;;;;;;;4916683;29;20423;-68
2022/10/14 22:48:01;;;;;;;5.15;2.90;;;;;;;;;;4914895;29;20055;-68
2022/10/14 22:50:28;;;;;;;6.43;2.80;;;;;;;;;;4916118;29;20044;-67
2022/10/14 22:52:56;;;;;;;4.85;2.63;;;;;;;;;;4916451;29;20052;-67
2022/10/14 22:55:23;;;;;;;6.82;2.90;;;;;;;;;;4914929;29;20533;-67
2022/10/14 22:57:51;;;;;;;7.25;2.80;;;;;;;;;;4916134;29;20121;-66
2022/10/14 23:00:18;;;;;;;9.55;3.03;;;;;;;;;;4916064;29;20092;-66
2022/10/14 23:02:45;;;;;;;5.90;2.65;;;;;;;;;;4916349;29;20078;-66
2022/10/14 23:05:13;;;;;;;6.03;2.65;;;;;;;;;;4914947;29;20044;-67
2022/10/14 23:07:41;;;;;;;3.83;2.40;;;;;;;;;;4915132;29;20052;-67
2022/10/14 23:10:08;;;;;;;15.13;3.15;;;;;;;;;;4916095;29;20040;-66
2022/10/14 23:12:36;;;;;;;5.30;2.65;;;;;;;;;;4916131;29;20129;-67
2022/10/14 23:15:04;;;;;;;5.60;2.60;;;;;;;;;;4916100;29;20557;-66
2022/10/14 23:17:31;;;;;;;5.57;2.75;;;;;;;;;;4916016;29;20048;-66
2022/10/14 23:19:59;;;;;;;7.05;2.75;;;;;;;;;;4914724;29;20048;-66
2022/10/14 23:22:26;;;;;;;7.55;2.67;;;;;;;;;;4916261;29;20380;-67
2022/10/14 23:24:53;;;;;;;8.20;2.95;;;;;;;;;;4915883;29;20040;-67
2022/10/14 23:27:21;;;;;;;6.68;2.90;;;;;;;;;;4915830;29;20055;-67
2022/10/14 23:29:48;;;;;;;7.18;3.10;;;;;;;;;;4915888;29;20036;-67
2022/10/14 23:32:16;;;;;;;6.38;2.92;;;;;;;;;;4915830;29;20052;-67
2022/10/14 23:34:48;;;;;;;4.50;2.50;;;;;;;;;;4915911;29;20047;-67
2022/10/14 23:37:16;;;;;;;8.90;3.70;;;;;;;;;;4915535;29;20047;-67
2022/10/14 23:39:43;;;;;;;7.00;2.90;;;;;;;;;;4915915;29;20187;-67
2022/10/14 23:42:11;;;;;;;7.28;3.13;;;;;;;;;;4914411;29;20508;-67
2022/10/14 23:44:38;;;;;;;8.52;4.20;;;;;;;;;;4918970;29;20083;-67
2022/10/14 23:47:06;;;;;;;8.30;3.13;;;;;;;;;;4919344;29;20046;-67
2022/10/14 23:49:33;;;;;;;7.95;3.65;;;;;;;;;;4917924;29;20503;-67
2022/10/14 23:52:00;;;;;;;8.30;3.75;;;;;;;;;;4918951;29;20051;-67
2022/10/14 23:54:28;;;;;;;8.27;3.38;;;;;;;;;;4918939;29;20048;-67
2022/10/14 23:56:56;;;;;;;7.10;3.40;;;;;;;;;;4949217;29;20040;-67
2022/10/14 23:59:23;;;;;;;7.75;3.67;;;;;;;;;;4918877;29;20037;-67
